Time;durP1;ratioP1;P1;durP2;ratioP2;P2;SDS_P1;SDS_P2;PMS_P1;PMS_P2;Temp;Humidity;BMP_temperature;BMP_pressure;BME280_temperature;BME280_humidity;BME280_pressure;Samples;Min_cycle;Max_cycle;Signal;HPM_P1;HPM_P2
2021/07/10 00:00:41;;;;;;;18.10;15.60;;;16.80;83.50;;;;;;5109755;28;20087;-83
2021/07/10 00:03:07;;;;;;;16.40;14.70;;;16.80;83.20;;;;;;5093639;28;20030;-83
2021/07/10 00:05:34;;;;;;;17.70;14.85;;;16.80;83.40;;;;;;5110188;28;20560;-83
2021/07/10 00:08:00;;;;;;;16.77;14.98;;;16.80;83.40;;;;;;5076728;28;20029;-83
2021/07/10 00:10:26;;;;;;;20.08;15.10;;;16.80;83.30;;;;;;5109420;28;20034;-82
2021/07/10 00:12:52;;;;;;;18.38;14.93;;;16.80;83.40;;;;;;5093445;28;20032;-83
2021/07/10 00:15:20;;;;;;;17.73;14.88;;;16.80;83.30;;;;;;5093352;28;20034;-83
2021/07/10 00:17:46;;;;;;;17.25;14.57;;;16.70;83.40;;;;;;5112973;28;20471;-83
2021/07/10 00:20:13;;;;;;;18.70;15.43;;;16.70;83.60;;;;;;5111878;28;20102;-83
2021/07/10 00:22:40;;;;;;;19.85;15.98;;;16.70;83.90;;;;;;5092203;28;20028;-84
2021/07/10 00:25:08;;;;;;;17.73;15.88;;;16.60;84.10;;;;;;5110271;28;20038;-84
2021/07/10 00:27:35;;;;;;;17.42;15.63;;;16.50;84.50;;;;;;5109594;28;20027;-83
2021/07/10 00:30:01;;;;;;;17.88;15.20;;;16.50;84.80;;;;;;5110097;28;20550;-83
2021/07/10 00:32:26;;;;;;;18.30;16.05;;;16.50;85.00;;;;;;5111408;28;20020;-83
2021/07/10 00:34:52;;;;;;;19.63;15.43;;;16.50;85.30;;;;;;5109519;28;20054;-83
2021/07/10 00:37:18;;;;;;;18.92;15.45;;;16.40;85.40;;;;;;5111601;28;20031;-83
2021/07/10 00:39:43;;;;;;;20.13;16.10;;;16.40;85.70;;;;;;5110614;28;20111;-83
2021/07/10 00:42:09;;;;;;;19.05;15.70;;;16.30;85.80;;;;;;5110398;28;20467;-83
2021/07/10 00:44:35;;;;;;;19.80;15.75;;;16.30;86.10;;;;;;5109758;28;20034;-82
2021/07/10 00:47:00;;;;;;;19.20;15.63;;;16.20;86.20;;;;;;5110846;28;20167;-83
2021/07/10 00:49:26;;;;;;;20.83;16.60;;;16.20;86.20;;;;;;5094171;28;20034;-82
2021/07/10 00:51:51;;;;;;;20.15;16.40;;;16.20;86.30;;;;;;5093738;28;20077;-83
2021/07/10 00:54:17;;;;;;;19.63;17.17;;;16.20;86.40;;;;;;5098514;28;20438;-83
2021/07/10 00:56:45;;;;;;;17.77;15.68;;;16.20;86.50;;;;;;5114259;28;20032;-83
2021/07/10 00:59:13;;;;;;;21.58;15.88;;;16.20;86.50;;;;;;5113531;28;20089;-83
2021/07/10 01:01:40;;;;;;;18.08;16.08;;;16.10;86.70;;;;;;5080087;28;20039;-83
2021/07/10 01:04:05;;;;;;;18.45;16.50;;;16.20;86.70;;;;;;5097013;28;20127;-83
2021/07/10 01:06:31;;;;;;;18.17;15.07;;;16.20;86.60;;;;;;5113929;28;20527;-83
2021/07/10 01:08:57;;;;;;;19.75;15.30;;;16.20;86.60;;;;;;5079755;28;20084;-83
2021/07/10 01:11:23;;;;;;;19.38;16.27;;;16.20;86.70;;;;;;5079899;28;20028;-84
2021/07/10 01:13:49;;;;;;;19.65;15.95;;;16.20;86.80;;;;;;5114022;28;20035;-83
2021/07/10 01:16:15;;;;;;;18.42;15.57;;;16.20;86.80;;;;;;5113631;28;20036;-84
2021/07/10 01:18:40;;;;;;;18.35;15.98;;;16.20;86.80;;;;;;5114185;28;20448;-84
2021/07/10 01:21:06;;;;;;;21.38;17.30;;;16.30;86.90;;;;;;5113529;28;20095;-84
2021/07/10 01:23:32;;;;;;;19.63;16.15;;;16.30;86.90;;;;;;5114586;28;20035;-82
2021/07/10 01:25:58;;;;;;;20.00;16.50;;;16.20;86.90;;;;;;5114341;28;20471;-82
2021/07/10 01:28:23;;;;;;;20.80;17.52;;;16.20;86.90;;;;;;5096343;28;20476;-81
2021/07/10 01:30:49;;;;;;;21.98;18.45;;;16.10;87.20;;;;;;5113004;28;20031;-82
2021/07/10 01:33:16;;;;;;;23.20;17.60;;;16.10;87.40;;;;;;5114683;28;20032;-83
2021/07/10 01:35:42;;;;;;;25.13;18.67;;;16.10;87.70;;;;;;5114044;28;20027;-83
2021/07/10 01:38:10;;;;;;;22.02;18.73;;;16.00;87.60;;;;;;5114863;28;20028;-83
2021/07/10 01:40:38;;;;;;;23.98;17.45;;;15.90;88.00;;;;;;5118357;28;20040;-82
2021/07/10 01:43:05;;;;;;;22.40;18.58;;;15.90;88.20;;;;;;5116775;28;20083;-83
2021/07/10 01:45:41;;;;;;;21.55;18.15;;;15.80;88.30;;;;;;5116451;28;20040;-83
2021/07/10 01:48:10;;;;;;;23.42;18.50;;;15.80;88.40;;;;;;5114605;28;20110;-82
2021/07/10 01:50:35;;;;;;;20.83;18.23;;;15.80;88.50;;;;;;5114157;28;20112;-83
2021/07/10 01:53:02;;;;;;;20.83;17.38;;;15.90;88.50;;;;;;5113716;28;20159;-82
2021/07/10 01:55:28;;;;;;;22.60;18.55;;;15.90;88.50;;;;;;5112988;28;20036;-82
2021/07/10 01:57:55;;;;;;;22.92;19.23;;;15.90;88.50;;;;;;5112551;28;20067;-82
2021/07/10 02:00:23;;;;;;;21.38;18.02;;;15.90;88.50;;;;;;5115029;28;20046;-82
2021/07/10 02:02:49;;;;;;;21.63;16.63;;;15.90;88.50;;;;;;5112944;28;20038;-82
2021/07/10 02:05:18;;;;;;;24.63;19.10;;;15.90;88.50;;;;;;5099175;28;20047;-82
2021/07/10 02:07:45;;;;;;;22.83;18.77;;;15.90;88.40;;;;;;5116536;28;20026;-82
2021/07/10 02:10:13;;;;;;;21.05;17.75;;;15.80;88.40;;;;;;5098504;28;20110;-82
2021/07/10 02:12:40;;;;;;;22.98;18.65;;;15.70;88.60;;;;;;5113196;28;20055;-82
2021/07/10 02:15:07;;;;;;;22.48;18.45;;;15.70;88.60;;;;;;5112107;28;20068;-82
2021/07/10 02:17:33;;;;;;;20.55;17.25;;;15.70;88.70;;;;;;5095581;28;20089;-82
2021/07/10 02:19:59;;;;;;;22.88;17.27;;;15.70;88.70;;;;;;5112066;28;20035;-82
2021/07/10 02:22:25;;;;;;;21.85;17.70;;;15.70;88.60;;;;;;5112519;28;20034;-82
2021/07/10 02:24:50;;;;;;;24.55;18.17;;;15.80;89.00;;;;;;5112664;28;20119;-82
2021/07/10 02:27:16;;;;;;;21.17;17.48;;;15.70;88.70;;;;;;5095654;28;20425;-82
2021/07/10 02:29:42;;;;;;;21.60;17.25;;;15.70;88.80;;;;;;5078234;28;20035;-82
2021/07/10 02:32:08;;;;;;;22.33;17.98;;;15.70;88.90;;;;;;5112848;27;20081;-82
2021/07/10 02:34:33;;;;;;;22.23;17.90;;;15.60;88.80;;;;;;5113024;28;20027;-82
2021/07/10 02:36:59;;;;;;;23.55;18.85;;;15.60;88.90;;;;;;5111305;28;20027;-82
2021/07/10 02:39:25;;;;;;;22.08;17.13;;;15.60;88.90;;;;;;5095265;28;20402;-82
2021/07/10 02:41:50;;;;;;;23.08;18.20;;;15.60;89.10;;;;;;5094362;28;20531;-82
2021/07/10 02:44:17;;;;;;;20.30;17.48;;;15.60;89.30;;;;;;5094885;28;20024;-81
2021/07/10 02:46:43;;;;;;;20.95;17.33;;;15.60;89.40;;;;;;5113130;28;20043;-81
2021/07/10 02:49:09;;;;;;;22.63;17.20;;;15.70;89.50;;;;;;5112516;28;20164;-81
2021/07/10 02:51:34;;;;;;;21.98;17.45;;;15.70;89.40;;;;;;5111627;28;20031;-81
2021/07/10 02:54:00;;;;;;;22.58;18.35;;;15.70;89.40;;;;;;5093662;28;20056;-81
2021/07/10 02:56:26;;;;;;;25.08;18.65;;;15.70;89.40;;;;;;5094577;28;20383;-81
2021/07/10 02:58:53;;;;;;;21.38;17.40;;;15.60;89.40;;;;;;5110820;28;20053;-81
2021/07/10 03:01:19;;;;;;;25.10;19.27;;;15.70;89.50;;;;;;5111093;28;20027;-82
2021/07/10 03:03:45;;;;;;;23.27;18.58;;;15.70;89.60;;;;;;5112873;28;20135;-81
2021/07/10 03:06:11;;;;;;;23.95;19.30;;;15.70;89.60;;;;;;5110804;28;20453;-81
2021/07/10 03:08:38;;;;;;;21.70;18.77;;;15.60;89.60;;;;;;5112890;28;20023;-81
2021/07/10 03:11:06;;;;;;;23.58;19.05;;;15.60;89.60;;;;;;5110543;28;20395;-81
2021/07/10 03:13:31;;;;;;;23.73;18.08;;;15.70;89.80;;;;;;5094417;28;20127;-81
2021/07/10 03:15:57;;;;;;;23.65;18.38;;;15.70;89.80;;;;;;5092743;28;20352;-81
2021/07/10 03:18:23;;;;;;;26.27;19.58;;;15.70;89.70;;;;;;5112712;28;20032;-81
2021/07/10 03:20:48;;;;;;;24.17;19.10;;;15.70;89.70;;;;;;5094233;28;20035;-81
2021/07/10 03:23:14;;;;;;;23.27;19.40;;;15.70;89.60;;;;;;5093650;28;20073;-80
2021/07/10 03:25:43;;;;;;;24.98;18.55;;;15.60;89.60;;;;;;5111084;28;20115;-80
2021/07/10 03:28:10;;;;;;;26.20;20.85;;;15.70;89.80;;;;;;5094105;28;20024;-80
2021/07/10 03:30:35;;;;;;;26.33;20.48;;;15.70;89.70;;;;;;5110660;28;20058;-80
2021/07/10 03:33:01;;;;;;;26.92;20.65;;;15.70;89.60;;;;;;5111424;28;20114;-80
2021/07/10 03:35:27;;;;;;;24.95;20.05;;;15.70;89.60;;;;;;5110841;28;20035;-80
2021/07/10 03:37:53;;;;;;;23.88;18.98;;;15.70;89.60;;;;;;5112426;28;20039;-80
2021/07/10 03:40:23;;;;;;;26.65;20.73;;;15.70;89.70;;;;;;5093318;28;20031;-80
2021/07/10 03:42:49;;;;;;;28.63;20.25;;;15.70;89.70;;;;;;5110784;28;20023;-80
2021/07/10 03:45:16;;;;;;;23.70;18.75;;;15.60;89.60;;;;;;5093224;28;20039;-80
2021/07/10 03:47:42;;;;;;;23.15;18.75;;;15.60;89.60;;;;;;5110818;28;20024;-80
2021/07/10 03:50:11;;;;;;;24.75;19.65;;;15.70;89.70;;;;;;5110253;28;20036;-80
2021/07/10 03:52:37;;;;;;;26.38;19.60;;;15.80;89.60;;;;;;5110237;28;20502;-80
2021/07/10 03:55:06;;;;;;;23.15;19.35;;;15.80;89.40;;;;;;5110087;28;20036;-80
2021/07/10 03:57:31;;;;;;;26.42;19.83;;;15.80;89.20;;;;;;5110530;28;20039;-80
2021/07/10 03:59:57;;;;;;;24.48;18.55;;;15.90;89.20;;;;;;5111921;28;20027;-80
2021/07/10 04:02:23;;;;;;;22.30;18.25;;;16.00;89.00;;;;;;5092974;28;20050;-80
2021/07/10 04:04:48;;;;;;;25.77;19.23;;;16.10;88.80;;;;;;5110381;28;20039;-80
2021/07/10 04:07:14;;;;;;;27.00;20.20;;;16.20;88.50;;;;;;5092841;28;20111;-81
2021/07/10 04:09:40;;;;;;;21.85;18.00;;;16.20;88.30;;;;;;5111800;28;20475;-80
2021/07/10 04:12:06;;;;;;;22.35;18.27;;;16.30;88.20;;;;;;5109889;28;20039;-81
2021/07/10 04:14:35;;;;;;;22.88;19.23;;;16.40;88.00;;;;;;5111599;28;20026;-81
2021/07/10 04:17:02;;;;;;;24.20;19.27;;;16.50;87.70;;;;;;5110094;28;20471;-81
2021/07/10 04:19:28;;;;;;;23.15;18.45;;;16.60;87.50;;;;;;5093726;28;20031;-82
2021/07/10 04:21:53;;;;;;;21.55;17.33;;;16.60;87.30;;;;;;5110448;28;20092;-81
2021/07/10 04:24:19;;;;;;;20.77;17.77;;;16.70;87.10;;;;;;5075860;28;20024;-82
2021/07/10 04:26:45;;;;;;;21.25;18.23;;;16.70;86.80;;;;;;5109874;28;20530;-81
2021/07/10 04:29:10;;;;;;;22.35;17.85;;;16.80;86.70;;;;;;5092026;28;20060;-81
2021/07/10 04:31:36;;;;;;;22.10;17.70;;;16.80;86.50;;;;;;5109784;28;20055;-81
2021/07/10 04:34:02;;;;;;;23.08;18.63;;;16.90;86.30;;;;;;5110509;28;20055;-81
2021/07/10 04:36:27;;;;;;;21.95;17.08;;;17.50;85.60;;;;;;5075844;28;20036;-81
2021/07/10 04:38:53;;;;;;;20.98;17.08;;;18.30;83.40;;;;;;5094260;28;20114;-81
2021/07/10 04:41:18;;;;;;;20.90;16.98;;;18.80;81.00;;;;;;5076703;28;20032;-81
2021/07/10 04:43:44;;;;;;;19.33;16.60;;;18.80;80.10;;;;;;5112056;28;20110;-81
2021/07/10 04:46:11;;;;;;;18.73;16.48;;;18.50;80.50;;;;;;5094556;28;20028;-81
2021/07/10 04:48:37;;;;;;;21.23;16.83;;;18.10;81.30;;;;;;5079288;28;20020;-81
2021/07/10 04:51:02;;;;;;;23.73;19.50;;;17.80;82.10;;;;;;5114146;28;20446;-80
2021/07/10 04:53:28;;;;;;;20.83;16.73;;;17.60;82.50;;;;;;5102722;28;20363;-81
2021/07/10 04:55:54;;;;;;;21.63;16.75;;;17.50;83.00;;;;;;5097577;28;20028;-81
2021/07/10 04:58:20;;;;;;;24.13;19.58;;;17.40;83.50;;;;;;5131728;28;20024;-81
2021/07/10 05:00:45;;;;;;;21.27;18.50;;;17.40;83.50;;;;;;5102932;28;20092;-82
2021/07/10 05:03:12;;;;;;;19.63;16.02;;;17.40;83.60;;;;;;5098627;28;20024;-82
2021/07/10 05:05:39;;;;;;;20.95;17.40;;;17.40;83.90;;;;;;5116060;28;20550;-82
2021/07/10 05:08:04;;;;;;;20.20;17.10;;;17.60;83.80;;;;;;5116166;28;20104;-82
2021/07/10 05:10:30;;;;;;;20.90;17.50;;;18.70;82.70;;;;;;5112238;28;20031;-81
2021/07/10 05:12:56;;;;;;;20.42;16.52;;;20.30;78.60;;;;;;5094101;28;20172;-81
2021/07/10 05:15:22;;;;;;;17.42;15.63;;;21.90;74.10;;;;;;5109122;28;20031;-81
2021/07/10 05:17:48;;;;;;;17.98;16.08;;;23.10;70.10;;;;;;5110173;28;20034;-82
2021/07/10 05:20:14;;;;;;;18.42;14.85;;;24.20;66.90;;;;;;5109960;28;20111;-82
2021/07/10 05:22:40;;;;;;;17.63;14.57;;;25.00;64.10;;;;;;5111402;28;20111;-82
2021/07/10 05:25:07;;;;;;;16.00;13.00;;;25.40;63.00;;;;;;5110055;28;20100;-82
2021/07/10 05:27:33;;;;;;;18.35;15.25;;;25.60;61.60;;;;;;5075572;28;20081;-82
2021/07/10 05:29:59;;;;;;;14.98;13.40;;;25.50;61.10;;;;;;5112241;28;20020;-82
2021/07/10 05:32:24;;;;;;;14.73;13.32;;;25.40;60.90;;;;;;5109932;28;20084;-82
2021/07/10 05:34:50;;;;;;;15.43;13.70;;;25.50;60.50;;;;;;5094700;28;20111;-81
2021/07/10 05:37:16;;;;;;;17.08;14.25;;;25.40;60.60;;;;;;5110652;28;20028;-83
2021/07/10 05:39:42;;;;;;;16.08;14.43;;;25.10;61.10;;;;;;5114139;28;20039;-80
2021/07/10 05:42:09;;;;;;;16.45;14.70;;;25.00;61.50;;;;;;5116585;28;20023;-83
2021/07/10 05:44:35;;;;;;;18.27;15.07;;;24.90;61.30;;;;;;5116373;28;20032;-82
2021/07/10 05:47:01;;;;;;;17.17;14.90;;;24.80;61.30;;;;;;5116863;28;20473;-82
2021/07/10 05:49:26;;;;;;;18.83;17.02;;;24.80;61.60;;;;;;5096402;28;20114;-82
2021/07/10 05:51:52;;;;;;;18.50;16.55;;;25.00;60.70;;;;;;5096928;28;20078;-83
2021/07/10 05:54:18;;;;;;;17.40;15.55;;;25.20;60.80;;;;;;5079319;28;20124;-82
2021/07/10 05:56:44;;;;;;;18.00;16.13;;;25.50;60.10;;;;;;5112865;28;20036;-82
2021/07/10 05:59:10;;;;;;;18.50;16.60;;;25.80;59.30;;;;;;5096602;28;20042;-82
2021/07/10 06:01:36;;;;;;;18.40;16.23;;;26.00;58.90;;;;;;5113695;28;20020;-82
2021/07/10 06:04:01;;;;;;;19.85;17.83;;;26.30;58.40;;;;;;5114139;28;20081;-83
2021/07/10 06:06:27;;;;;;;18.98;16.95;;;26.40;57.70;;;;;;5113734;28;20042;-83
2021/07/10 06:08:53;;;;;;;18.88;16.92;;;26.70;56.80;;;;;;5114449;28;20532;-83
2021/07/10 06:11:20;;;;;;;21.95;19.65;;;26.80;56.40;;;;;;5113916;28;20035;-83
2021/07/10 06:13:45;;;;;;;22.23;18.83;;;26.80;55.20;;;;;;5114211;28;20079;-83
2021/07/10 06:16:12;;;;;;;20.60;18.40;;;26.70;55.80;;;;;;5116478;28;20066;-83
2021/07/10 06:18:37;;;;;;;22.95;18.33;;;26.40;56.70;;;;;;5113980;28;20024;-83
2021/07/10 06:21:03;;;;;;;20.90;17.55;;;26.20;57.00;;;;;;5096300;28;20039;-83
2021/07/10 06:23:28;;;;;;;23.95;19.15;;;26.20;57.40;;;;;;5112270;28;20485;-83
2021/07/10 06:25:54;;;;;;;21.95;19.55;;;26.60;56.70;;;;;;5112961;28;20073;-82
2021/07/10 06:28:20;;;;;;;22.25;18.48;;;27.00;56.10;;;;;;5112613;28;20028;-83
2021/07/10 06:30:46;;;;;;;20.45;18.25;;;27.20;55.80;;;;;;5112605;28;20042;-83
2021/07/10 06:33:11;;;;;;;21.63;18.63;;;27.40;55.00;;;;;;5095820;28;20024;-83
2021/07/10 06:35:37;;;;;;;23.40;20.23;;;27.10;54.80;;;;;;5111815;28;20379;-82
2021/07/10 06:38:03;;;;;;;22.92;18.05;;;26.70;56.30;;;;;;5095318;28;20036;-83
2021/07/10 06:40:29;;;;;;;22.33;19.13;;;26.30;56.30;;;;;;5111271;28;20443;-83
2021/07/10 06:42:55;;;;;;;24.67;19.88;;;26.00;57.20;;;;;;5113896;28;20038;-82
2021/07/10 06:45:21;;;;;;;21.52;19.20;;;25.70;58.30;;;;;;5113273;28;20123;-83
2021/07/10 06:47:48;;;;;;;23.92;20.13;;;25.60;59.20;;;;;;5111684;28;20081;-83
2021/07/10 06:50:17;;;;;;;25.98;21.27;;;25.50;59.60;;;;;;5113248;28;20019;-81
2021/07/10 06:52:44;;;;;;;24.50;20.52;;;25.50;58.70;;;;;;5112681;28;20328;-83
2021/07/10 06:55:12;;;;;;;31.20;22.38;;;25.50;59.00;;;;;;5113621;28;20117;-83
2021/07/10 06:57:38;;;;;;;29.55;22.98;;;25.60;59.40;;;;;;5113619;28;20467;-83
2021/07/10 07:00:10;;;;;;;33.08;22.60;;;25.80;59.00;;;;;;5094766;28;20046;-83
2021/07/10 07:02:35;;;;;;;27.98;23.65;;;25.80;59.10;;;;;;5111238;28;20051;-84
2021/07/10 07:05:01;;;;;;;31.20;23.13;;;25.90;58.30;;;;;;5095084;28;20058;-84
2021/07/10 07:07:27;;;;;;;34.30;25.98;;;26.00;58.60;;;;;;5095155;28;20028;-83
2021/07/10 07:09:52;;;;;;;28.48;22.75;;;26.00;57.50;;;;;;5111409;28;20049;-84
2021/07/10 07:12:18;;;;;;;33.72;24.42;;;25.80;57.00;;;;;;5111853;28;20379;-84
2021/07/10 07:14:44;;;;;;;29.42;23.75;;;25.80;57.90;;;;;;5094238;28;20127;-84
2021/07/10 07:17:09;;;;;;;25.90;22.98;;;25.80;57.90;;;;;;5112270;28;20043;-83
2021/07/10 07:19:35;;;;;;;27.27;21.88;;;26.10;58.30;;;;;;5112464;28;20098;-84
2021/07/10 07:22:01;;;;;;;28.05;22.00;;;26.20;56.80;;;;;;5111618;28;20479;-83
2021/07/10 07:24:27;;;;;;;27.10;23.70;;;26.40;56.80;;;;;;5111748;28;20406;-82
2021/07/10 07:26:53;;;;;;;26.98;22.17;;;26.30;56.10;;;;;;5112338;28;20032;-82
2021/07/10 07:29:19;;;;;;;27.45;20.77;;;26.00;54.50;;;;;;5111270;28;20084;-83
2021/07/10 07:31:45;;;;;;;24.92;20.45;;;25.80;56.00;;;;;;5076782;28;20020;-83
2021/07/10 07:34:11;;;;;;;27.42;22.80;;;25.80;57.30;;;;;;5094452;28;20035;-82
2021/07/10 07:36:37;;;;;;;24.80;21.30;;;25.90;56.90;;;;;;5111044;28;20528;-82
2021/07/10 07:39:06;;;;;;;23.17;20.55;;;26.10;57.50;;;;;;5113911;28;20043;-83
2021/07/10 07:41:33;;;;;;;25.40;21.38;;;26.50;56.40;;;;;;5115200;28;20051;-83
2021/07/10 07:43:59;;;;;;;23.05;20.50;;;26.80;55.20;;;;;;5118948;28;20100;-82
2021/07/10 07:46:24;;;;;;;24.58;20.33;;;26.80;54.80;;;;;;5116820;28;20451;-84
2021/07/10 07:48:51;;;;;;;26.27;20.55;;;26.90;54.60;;;;;;5118835;28;20547;-84
2021/07/10 07:51:18;;;;;;;23.38;19.48;;;27.10;54.40;;;;;;5096432;28;20043;-82
2021/07/10 07:53:45;;;;;;;25.83;19.92;;;27.50;53.60;;;;;;5097596;28;20051;-84
2021/07/10 07:56:11;;;;;;;22.52;20.13;;;27.70;52.30;;;;;;5111232;28;20322;-84
2021/07/10 07:58:39;;;;;;;23.17;19.83;;;27.80;51.20;;;;;;5111333;28;20053;-86
2021/07/10 08:01:06;;;;;;;21.25;18.10;;;27.80;52.20;;;;;;5112760;28;20024;-85
2021/07/10 08:03:32;;;;;;;22.92;18.92;;;28.00;52.40;;;;;;5111577;28;20024;-84
2021/07/10 08:05:58;;;;;;;24.58;20.25;;;28.30;52.20;;;;;;5110521;28;20035;-85
2021/07/10 08:08:24;;;;;;;21.88;19.58;;;28.30;50.60;;;;;;5110811;28;20024;-84
2021/07/10 08:10:50;;;;;;;23.92;19.45;;;28.20;51.20;;;;;;5110370;28;20039;-85
2021/07/10 08:13:16;;;;;;;22.90;18.13;;;28.20;50.80;;;;;;5094694;28;20035;-85
2021/07/10 08:15:43;;;;;;;20.98;18.42;;;28.00;50.80;;;;;;5110687;28;20040;-85
2021/07/10 08:18:09;;;;;;;25.00;20.98;;;27.70;51.60;;;;;;5093752;28;20496;-85
2021/07/10 08:20:35;;;;;;;20.27;17.42;;;27.20;52.20;;;;;;5111933;28;20024;-85
2021/07/10 08:23:01;;;;;;;23.13;16.45;;;26.90;54.10;;;;;;5110414;28;20043;-85
2021/07/10 08:25:27;;;;;;;18.10;15.48;;;27.00;54.20;;;;;;5077243;28;20077;-85
2021/07/10 08:27:53;;;;;;;19.42;16.67;;;27.00;53.70;;;;;;5118284;28;20435;-85
2021/07/10 08:30:20;;;;;;;18.50;15.90;;;27.10;54.30;;;;;;5120004;28;20023;-85
2021/07/10 08:32:47;;;;;;;18.55;15.43;;;27.10;53.60;;;;;;5118925;28;20083;-84
2021/07/10 08:35:14;;;;;;;17.30;15.25;;;27.10;53.70;;;;;;5111960;28;20031;-83
2021/07/10 08:37:40;;;;;;;21.20;16.17;;;27.20;54.10;;;;;;5093708;28;20028;-84
2021/07/10 08:40:08;;;;;;;17.95;14.88;;;27.40;53.70;;;;;;5111218;28;20483;-84
2021/07/10 08:42:34;;;;;;;17.40;13.38;;;27.50;53.10;;;;;;5111941;28;20428;-84
2021/07/10 08:45:05;;;;;;;16.63;12.55;;;27.80;52.70;;;;;;5110211;28;20038;-84
2021/07/10 08:47:34;;;;;;;20.85;13.40;;;28.00;52.00;;;;;;5112127;28;20031;-85
2021/07/10 08:50:00;;;;;;;12.68;10.15;;;28.10;50.70;;;;;;5110086;28;20073;-84
2021/07/10 08:52:26;;;;;;;12.43;10.32;;;28.00;51.60;;;;;;5110854;28;20043;-84
2021/07/10 08:54:51;;;;;;;13.60;11.63;;;28.10;51.30;;;;;;5109610;28;20047;-84
2021/07/10 08:57:19;;;;;;;12.98;11.68;;;28.30;51.20;;;;;;5094181;28;20042;-85
2021/07/10 08:59:46;;;;;;;12.02;9.88;;;28.40;51.10;;;;;;5111269;28;20515;-84
2021/07/10 09:02:12;;;;;;;11.45;9.65;;;28.40;50.70;;;;;;5109579;28;20027;-85
2021/07/10 09:04:39;;;;;;;12.18;10.32;;;28.30;51.20;;;;;;5110400;28;20504;-83
2021/07/10 09:07:05;;;;;;;11.15;10.00;;;28.20;51.20;;;;;;5093330;28;20108;-84
2021/07/10 09:09:47;;;;;;;11.40;10.18;;;28.20;51.40;;;;;;5111444;28;20034;-82
2021/07/10 09:12:13;;;;;;;12.40;10.07;;;28.20;51.00;;;;;;5111121;28;20332;-82
2021/07/10 09:14:41;;;;;;;13.13;11.82;;;28.10;51.20;;;;;;5112297;28;20023;-82
2021/07/10 09:17:18;;;;;;;10.98;9.80;;;27.90;49.50;;;;;;5096637;28;20506;-83
2021/07/10 09:19:44;;;;;;;13.15;11.15;;;27.60;51.80;;;;;;5115986;28;20020;-84
2021/07/10 09:22:10;;;;;;;12.98;11.63;;;27.50;52.40;;;;;;5114109;28;20042;-83
2021/07/10 09:24:38;;;;;;;16.15;12.02;;;27.60;52.90;;;;;;5097652;28;20027;-84
2021/07/10 09:27:09;;;;;;;17.95;14.15;;;27.70;53.00;;;;;;5116364;28;20054;-85
2021/07/10 09:29:43;;;;;;;18.45;13.90;;;27.80;52.70;;;;;;5118090;28;20031;-84
2021/07/10 09:32:11;;;;;;;20.70;16.08;;;27.60;53.00;;;;;;5118475;28;20020;-85
2021/07/10 09:34:41;;;;;;;16.75;14.30;;;27.40;52.60;;;;;;5117485;28;20020;-84
2021/07/10 09:37:18;;;;;;;18.55;14.95;;;27.20;54.00;;;;;;5099684;28;20467;-85
2021/07/10 09:40:01;;;;;;;16.23;13.32;;;26.80;53.60;;;;;;5119310;28;20090;-83
2021/07/10 09:42:36;;;;;;;16.55;13.80;;;26.80;55.40;;;;;;5121532;28;20119;-83
2021/07/10 09:45:04;;;;;;;12.73;10.18;;;26.70;55.20;;;;;;5114820;28;20111;-84
2021/07/10 09:47:33;;;;;;;11.77;9.63;;;26.60;55.00;;;;;;5115731;28;20151;-83
2021/07/10 09:50:01;;;;;;;11.43;8.85;;;26.70;54.50;;;;;;5098447;28;20055;-83
2021/07/10 09:52:35;;;;;;;11.98;10.07;;;26.80;53.70;;;;;;5098640;28;20031;-82
2021/07/10 09:55:08;;;;;;;12.98;10.60;;;26.90;54.50;;;;;;5117271;28;20546;-84
2021/07/10 09:57:37;;;;;;;11.95;10.20;;;27.10;54.30;;;;;;5116656;28;20034;-83
2021/07/10 10:00:09;;;;;;;12.63;10.50;;;27.20;54.00;;;;;;5116224;28;20024;-82
2021/07/10 10:02:59;;;;;;;9.57;8.52;;;27.50;52.90;;;;;;5115541;28;20024;-83
2021/07/10 10:05:31;;;;;;;8.05;6.35;;;27.70;52.00;;;;;;5104153;28;20031;-84
2021/07/10 10:08:01;;;;;;;6.82;6.15;;;28.10;50.70;;;;;;5118611;28;20027;-84
2021/07/10 10:10:31;;;;;;;7.18;5.20;;;28.40;50.40;;;;;;5100325;28;20047;-84
2021/07/10 10:13:09;;;;;;;7.43;6.38;;;28.80;49.30;;;;;;5113059;28;20031;-83
2021/07/10 10:15:34;;;;;;;8.52;7.22;;;29.40;48.50;;;;;;5114154;28;20028;-85
2021/07/10 10:18:00;;;;;;;12.77;9.88;;;29.80;47.90;;;;;;5114328;28;20068;-83
2021/07/10 10:20:27;;;;;;;10.13;8.60;;;30.10;47.00;;;;;;5096281;28;20455;-84
2021/07/10 10:22:53;;;;;;;9.20;8.30;;;29.90;45.50;;;;;;5114198;28;20027;-83
2021/07/10 10:25:19;;;;;;;7.07;6.18;;;29.80;45.80;;;;;;5111864;28;20069;-83
2021/07/10 10:27:47;;;;;;;8.60;6.68;;;29.60;47.50;;;;;;5112825;28;20039;-84
2021/07/10 10:30:14;;;;;;;7.18;6.40;;;29.50;47.80;;;;;;5095417;28;20028;-84
2021/07/10 10:32:42;;;;;;;6.90;5.88;;;29.30;47.60;;;;;;5112662;28;20068;-84
2021/07/10 10:35:08;;;;;;;6.47;5.65;;;29.20;48.00;;;;;;5095108;28;20084;-83
2021/07/10 10:37:36;;;;;;;5.30;4.80;;;29.20;48.10;;;;;;5112289;28;20498;-84
2021/07/10 10:40:04;;;;;;;6.72;5.80;;;29.20;47.70;;;;;;5095783;28;20043;-84
2021/07/10 10:42:30;;;;;;;7.90;7.03;;;29.40;47.40;;;;;;5112525;28;20459;-84
2021/07/10 10:44:59;;;;;;;6.38;5.40;;;29.40;46.40;;;;;;5095332;28;20036;-83
2021/07/10 10:47:25;;;;;;;5.55;5.05;;;29.10;47.40;;;;;;5112907;28;20020;-84
2021/07/10 10:49:56;;;;;;;6.47;4.25;;;29.30;47.50;;;;;;5095442;28;20031;-84
2021/07/10 10:52:32;;;;;;;6.85;4.47;;;29.90;47.30;;;;;;5095799;28;20080;-84
2021/07/10 10:55:33;;;;;;;5.22;4.68;;;30.70;45.80;;;;;;5111756;28;20142;-84
2021/07/10 10:58:29;;;;;;;4.85;4.35;;;31.30;44.90;;;;;;5112495;28;20027;-84
2021/07/10 11:01:08;;;;;;;6.53;4.95;;;31.80;44.60;;;;;;5114394;28;20024;-84
2021/07/10 11:03:42;;;;;;;5.70;4.47;;;32.00;43.30;;;;;;5113539;28;20030;-83
2021/07/10 11:06:28;;;;;;;4.97;4.45;;;32.40;42.90;;;;;;5096052;28;20058;-85
2021/07/10 11:08:54;;;;;;;5.78;5.13;;;32.50;42.50;;;;;;5112361;28;20020;-84
2021/07/10 11:11:22;;;;;;;5.05;4.28;;;32.90;42.10;;;;;;5094699;28;20030;-84
2021/07/10 11:14:11;;;;;;;5.22;3.40;;;33.00;41.10;;;;;;5112027;28;20024;-84
2021/07/10 11:17:01;;;;;;;4.22;3.13;;;33.10;41.00;;;;;;5112288;28;20027;-84
2021/07/10 11:19:56;;;;;;;3.78;3.47;;;33.00;40.40;;;;;;5111840;28;20016;-82
2021/07/10 11:22:58;;;;;;;4.03;3.13;;;32.60;39.40;;;;;;5094075;28;20040;-84
2021/07/10 11:25:45;;;;;;;5.03;3.00;;;31.90;40.70;;;;;;5029654;28;20037;-83
2021/07/10 11:28:18;;;;;;;4.20;3.13;;;31.60;41.90;;;;;;5108191;28;20114;-83
2021/07/10 11:30:51;;;;;;;6.22;2.67;;;31.60;41.30;;;;;;5111919;28;20038;-82
2021/07/10 11:34:04;;;;;;;3.72;3.00;;;31.20;41.60;;;;;;5095269;28;20023;-84
2021/07/10 11:36:53;;;;;;;3.47;2.80;;;31.10;42.70;;;;;;5111422;28;20081;-84
2021/07/10 11:39:26;;;;;;;3.72;2.92;;;31.40;41.90;;;;;;5110961;28;20023;-83
2021/07/10 11:42:15;;;;;;;2.83;2.50;;;31.40;40.80;;;;;;5111559;28;20501;-84
2021/07/10 11:44:43;;;;;;;2.17;1.95;;;31.20;40.50;;;;;;5089490;28;20483;-84
2021/07/10 11:47:09;;;;;;;3.47;2.35;;;31.20;41.90;;;;;;5111102;28;20066;-84
2021/07/10 11:49:42;;;;;;;4.68;2.38;;;31.00;40.20;;;;;;5110896;28;20051;-83
2021/07/10 11:52:18;;;;;;;3.00;2.47;;;31.00;41.70;;;;;;5110873;28;20050;-84
2021/07/10 11:54:48;;;;;;;3.50;2.58;;;31.10;42.10;;;;;;5111038;28;20043;-84
2021/07/10 11:57:15;;;;;;;2.78;1.83;;;31.50;41.00;;;;;;5112311;28;20054;-83
2021/07/10 11:59:41;;;;;;;2.53;1.70;;;31.60;39.30;;;;;;5110707;28;20125;-84
2021/07/10 12:02:33;;;;;;;2.33;1.30;;;31.20;38.30;;;;;;5094147;28;20025;-83
2021/07/10 12:05:08;;;;;;;2.00;1.50;;;31.20;40.10;;;;;;5090423;28;20051;-82
2021/07/10 12:07:45;;;;;;;3.85;1.80;;;31.00;37.80;;;;;;5112035;28;20031;-86
2021/07/10 12:10:29;;;;;;;2.35;1.73;;;30.50;38.80;;;;;;5110439;28;20503;-84
2021/07/10 12:13:03;;;;;;;3.05;1.88;;;30.20;40.80;;;;;;5111069;28;20035;-83
2021/07/10 12:15:35;;;;;;;3.40;2.20;;;30.00;40.50;;;;;;5109924;28;20034;-81
2021/07/10 12:18:05;;;;;;;2.42;1.98;;;29.60;39.90;;;;;;5112041;28;20038;-83
2021/07/10 12:20:34;;;;;;;2.95;1.92;;;29.50;41.80;;;;;;5076804;28;20027;-85
2021/07/10 12:23:10;;;;;;;2.85;1.40;;;30.00;42.30;;;;;;5094336;28;20027;-82
2021/07/10 12:26:02;;;;;;;2.13;1.33;;;30.10;40.60;;;;;;5110019;28;20475;-82
2021/07/10 12:28:34;;;;;;;2.83;1.80;;;30.20;39.60;;;;;;5105761;28;20059;-84
2021/07/10 12:31:02;;;;;;;4.80;1.42;;;30.40;41.20;;;;;;5111771;28;20031;-84
2021/07/10 12:33:29;;;;;;;2.72;1.63;;;30.70;41.20;;;;;;5109915;28;20058;-83
2021/07/10 12:36:13;;;;;;;2.08;1.70;;;30.80;40.50;;;;;;5110031;28;20027;-83